Time;durP1;ratioP1;P1;durP2;ratioP2;P2;SDS_P1;SDS_P2;PMS_P1;PMS_P2;Temp;Humidity;BMP_temperature;BMP_pressure;BME280_temperature;BME280_humidity;BME280_pressure;Samples;Min_cycle;Max_cycle;Signal;HPM_P1;HPM_P2
2023/05/14 00:00:40;;;;;;;14.27;13.05;;;;;;;;;;5042541;28;20231;-51
2023/05/14 00:03:06;;;;;;;15.60;13.98;;;;;;;;;;5036322;28;20327;-51
2023/05/14 00:05:33;;;;;;;15.70;13.77;;;;;;;;;;5042127;28;20232;-51
2023/05/14 00:07:59;;;;;;;14.95;13.40;;;;;;;;;;5048909;28;20239;-52
2023/05/14 00:10:27;;;;;;;14.07;12.68;;;;;;;;;;5047325;28;20370;-51
2023/05/14 00:12:54;;;;;;;17.20;13.73;;;;;;;;;;5052262;28;20246;-52
2023/05/14 00:15:21;;;;;;;13.52;12.25;;;;;;;;;;5045522;28;20223;-52
2023/05/14 00:17:47;;;;;;;14.20;12.80;;;;;;;;;;5048937;28;20227;-51
2023/05/14 00:20:13;;;;;;;14.25;12.60;;;;;;;;;;5051211;28;20322;-50
2023/05/14 00:22:40;;;;;;;13.73;12.52;;;;;;;;;;5044681;28;20780;-50
2023/05/14 00:25:07;;;;;;;14.38;12.90;;;;;;;;;;5053069;28;20307;-51
2023/05/14 00:27:36;;;;;;;12.60;11.50;;;;;;;;;;5044938;28;20814;-53
2023/05/14 00:30:04;;;;;;;13.30;12.10;;;;;;;;;;5048311;28;20232;-52
2023/05/14 00:32:30;;;;;;;12.52;11.40;;;;;;;;;;5045121;28;20712;-51
2023/05/14 00:34:57;;;;;;;12.40;11.27;;;;;;;;;;5041493;28;20328;-51
2023/05/14 00:37:24;;;;;;;13.48;12.13;;;;;;;;;;5040948;28;20244;-52
2023/05/14 00:39:50;;;;;;;12.90;11.48;;;;;;;;;;5050099;28;20234;-52
2023/05/14 00:42:17;;;;;;;14.30;12.45;;;;;;;;;;5043878;28;20795;-52
2023/05/14 00:44:45;;;;;;;13.07;11.85;;;;;;;;;;5050235;28;20230;-52
2023/05/14 00:47:12;;;;;;;12.00;11.00;;;;;;;;;;5051406;28;20282;-52
2023/05/14 00:49:40;;;;;;;13.23;11.98;;;;;;;;;;5054355;28;20757;-51
2023/05/14 00:52:06;;;;;;;12.50;11.27;;;;;;;;;;5046680;27;20232;-51
2023/05/14 00:54:33;;;;;;;11.68;10.68;;;;;;;;;;5052611;28;20285;-50
2023/05/14 00:57:00;;;;;;;12.00;10.57;;;;;;;;;;5048833;27;20242;-51
2023/05/14 00:59:26;;;;;;;10.73;9.73;;;;;;;;;;5050809;27;20235;-50
2023/05/14 01:01:54;;;;;;;12.50;11.32;;;;;;;;;;5051477;27;20380;-52
2023/05/14 01:04:21;;;;;;;12.00;10.10;;;;;;;;;;5052192;28;20264;-51
2023/05/14 01:06:51;;;;;;;11.48;10.38;;;;;;;;;;5056877;28;20239;-51
2023/05/14 01:09:20;;;;;;;11.70;10.10;;;;;;;;;;5048505;28;20239;-51
2023/05/14 01:11:49;;;;;;;10.75;9.77;;;;;;;;;;5043146;28;20227;-52
2023/05/14 01:14:21;;;;;;;11.15;10.10;;;;;;;;;;5053580;28;20298;-53
2023/05/14 01:16:49;;;;;;;11.95;10.82;;;;;;;;;;5054447;28;20228;-53
2023/05/14 01:19:22;;;;;;;11.75;10.70;;;;;;;;;;5042639;28;20238;-53
2023/05/14 01:21:50;;;;;;;10.70;9.70;;;;;;;;;;5047386;28;20262;-53
2023/05/14 01:24:16;;;;;;;11.63;10.60;;;;;;;;;;5044196;28;20234;-54
2023/05/14 01:26:43;;;;;;;10.23;9.20;;;;;;;;;;5045265;28;20319;-51
2023/05/14 01:29:13;;;;;;;12.15;10.23;;;;;;;;;;5051376;28;20258;-51
2023/05/14 01:31:40;;;;;;;10.40;9.45;;;;;;;;;;5048188;28;20240;-53
2023/05/14 01:34:08;;;;;;;10.45;9.55;;;;;;;;;;5047063;28;20293;-51
2023/05/14 01:36:35;;;;;;;11.77;9.65;;;;;;;;;;5043821;28;20657;-51
2023/05/14 01:39:03;;;;;;;11.98;10.02;;;;;;;;;;5050291;28;20237;-52
2023/05/14 01:41:31;;;;;;;9.80;9.00;;;;;;;;;;5041650;28;20238;-53
2023/05/14 01:43:57;;;;;;;10.32;9.32;;;;;;;;;;5048489;28;20308;-51
2023/05/14 01:46:24;;;;;;;10.57;9.57;;;;;;;;;;5060448;28;20287;-52
2023/05/14 01:48:51;;;;;;;10.27;9.30;;;;;;;;;;5049852;28;20228;-52
2023/05/14 01:51:17;;;;;;;10.63;9.52;;;;;;;;;;5047757;28;20231;-54
2023/05/14 01:53:44;;;;;;;10.98;9.55;;;;;;;;;;5052388;28;20270;-51
2023/05/14 01:56:12;;;;;;;10.27;9.38;;;;;;;;;;5063773;28;20242;-52
2023/05/14 01:58:38;;;;;;;9.98;9.07;;;;;;;;;;5061276;28;20299;-53
2023/05/14 02:01:05;;;;;;;10.68;9.73;;;;;;;;;;5051662;28;20231;-53
2023/05/14 02:03:32;;;;;;;11.95;10.88;;;;;;;;;;5053903;28;20247;-51
2023/05/14 02:05:58;;;;;;;11.23;10.18;;;;;;;;;;5051110;28;20231;-51
2023/05/14 02:08:25;;;;;;;10.90;10.00;;;;;;;;;;5047503;28;20244;-53
2023/05/14 02:10:51;;;;;;;10.40;9.40;;;;;;;;;;5045448;28;20231;-52
2023/05/14 02:13:20;;;;;;;12.63;9.80;;;;;;;;;;5041219;28;20367;-52
2023/05/14 02:15:46;;;;;;;10.55;9.18;;;;;;;;;;5028749;28;20227;-51
2023/05/14 02:18:13;;;;;;;10.57;9.68;;;;;;;;;;5046662;28;20246;-52
2023/05/14 02:20:39;;;;;;;10.32;9.40;;;;;;;;;;5044505;28;20231;-52
2023/05/14 02:23:06;;;;;;;11.68;10.57;;;;;;;;;;5043447;28;20231;-52
2023/05/14 02:25:33;;;;;;;10.50;9.60;;;;;;;;;;5049096;28;20235;-51
2023/05/14 02:27:59;;;;;;;12.80;11.00;;;;;;;;;;5041228;28;20243;-51
2023/05/14 02:30:28;;;;;;;12.32;9.93;;;;;;;;;;5049035;28;20323;-51
2023/05/14 02:32:55;;;;;;;10.55;9.65;;;;;;;;;;5052436;28;20247;-51
2023/05/14 02:35:21;;;;;;;11.35;10.25;;;;;;;;;;5048993;28;20311;-51
2023/05/14 02:37:48;;;;;;;11.23;10.07;;;;;;;;;;5048888;28;20689;-51
2023/05/14 02:40:15;;;;;;;14.82;11.10;;;;;;;;;;5048926;28;20306;-51
2023/05/14 02:42:41;;;;;;;10.82;9.70;;;;;;;;;;5047051;28;20259;-52
2023/05/14 02:45:08;;;;;;;10.85;9.95;;;;;;;;;;5050055;28;20254;-51
2023/05/14 02:47:36;;;;;;;11.35;10.25;;;;;;;;;;5054299;28;20317;-51
2023/05/14 02:50:03;;;;;;;10.93;9.82;;;;;;;;;;5054206;28;20239;-52
2023/05/14 02:52:30;;;;;;;10.82;9.73;;;;;;;;;;5045565;28;20245;-52
2023/05/14 02:54:56;;;;;;;10.00;9.00;;;;;;;;;;5057622;28;20284;-51
2023/05/14 02:57:23;;;;;;;12.80;9.88;;;;;;;;;;5050449;28;20242;-52
2023/05/14 02:59:49;;;;;;;11.10;10.02;;;;;;;;;;5049726;28;20230;-51
2023/05/14 03:02:16;;;;;;;10.40;9.35;;;;;;;;;;5050272;28;20678;-52
2023/05/14 03:04:44;;;;;;;12.45;9.98;;;;;;;;;;5044792;28;20769;-51
2023/05/14 03:07:11;;;;;;;10.18;9.10;;;;;;;;;;5051620;28;20987;-52
2023/05/14 03:09:37;;;;;;;9.88;8.98;;;;;;;;;;5047094;28;20231;-51
2023/05/14 03:12:04;;;;;;;10.13;9.23;;;;;;;;;;5047300;28;20236;-51
2023/05/14 03:14:30;;;;;;;10.82;9.82;;;;;;;;;;5044399;28;20228;-52
2023/05/14 03:16:57;;;;;;;10.18;9.27;;;;;;;;;;5061701;28;20231;-51
2023/05/14 03:19:23;;;;;;;9.57;8.55;;;;;;;;;;5052394;28;20723;-53
2023/05/14 03:21:51;;;;;;;9.38;8.38;;;;;;;;;;5058058;28;20226;-52
2023/05/14 03:24:18;;;;;;;10.27;9.32;;;;;;;;;;5054588;28;20276;-51
2023/05/14 03:26:44;;;;;;;9.60;8.68;;;;;;;;;;5051194;28;20228;-51
2023/05/14 03:29:11;;;;;;;11.95;8.88;;;;;;;;;;5058830;28;20740;-52
2023/05/14 03:31:37;;;;;;;9.55;8.68;;;;;;;;;;5057057;28;20235;-52
2023/05/14 03:34:04;;;;;;;9.82;8.82;;;;;;;;;;5057824;28;20900;-56
2023/05/14 03:36:31;;;;;;;9.35;8.35;;;;;;;;;;5072660;28;20781;-53
2023/05/14 03:38:59;;;;;;;11.10;8.43;;;;;;;;;;5061735;28;20227;-52
2023/05/14 03:41:26;;;;;;;9.63;8.52;;;;;;;;;;5059683;28;20228;-50
2023/05/14 03:43:52;;;;;;;8.93;7.82;;;;;;;;;;5057647;28;20493;-51
2023/05/14 03:46:19;;;;;;;9.88;8.90;;;;;;;;;;5054477;28;20288;-52
2023/05/14 03:48:45;;;;;;;12.45;8.45;;;;;;;;;;5055276;28;20228;-52
2023/05/14 03:51:12;;;;;;;9.02;8.10;;;;;;;;;;5055973;28;20240;-52
2023/05/14 03:53:38;;;;;;;10.27;9.38;;;;;;;;;;5054465;28;20947;-51
2023/05/14 03:56:06;;;;;;;9.63;8.82;;;;;;;;;;5061580;28;20736;-53
2023/05/14 03:58:33;;;;;;;9.68;8.73;;;;;;;;;;5055396;28;20640;-52
2023/05/14 04:00:59;;;;;;;9.18;7.68;;;;;;;;;;5055889;28;20315;-53
2023/05/14 04:03:26;;;;;;;10.35;8.60;;;;;;;;;;5033145;27;20323;-51
2023/05/14 04:05:53;;;;;;;8.40;7.53;;;;;;;;;;5049372;28;20263;-52
2023/05/14 04:08:19;;;;;;;9.27;8.20;;;;;;;;;;5059085;28;20245;-51
2023/05/14 04:10:46;;;;;;;8.15;7.43;;;;;;;;;;5059787;28;20235;-51
2023/05/14 04:13:14;;;;;;;8.32;7.53;;;;;;;;;;5046329;28;20239;-52
2023/05/14 04:15:40;;;;;;;9.18;8.27;;;;;;;;;;5057069;28;20227;-51
2023/05/14 04:18:07;;;;;;;9.25;8.35;;;;;;;;;;5049952;27;20239;-51
2023/05/14 04:20:33;;;;;;;10.20;8.10;;;;;;;;;;5055625;28;20876;-53
2023/05/14 04:23:00;;;;;;;10.10;8.38;;;;;;;;;;5050078;28;20248;-51
2023/05/14 04:25:27;;;;;;;9.15;8.18;;;;;;;;;;5050670;28;20240;-51
2023/05/14 04:27:54;;;;;;;8.35;7.55;;;;;;;;;;5046944;28;20720;-52
2023/05/14 04:30:22;;;;;;;9.32;7.63;;;;;;;;;;5050061;28;20231;-52
2023/05/14 04:32:48;;;;;;;8.65;7.85;;;;;;;;;;5057737;28;20322;-51
2023/05/14 04:35:15;;;;;;;8.82;7.72;;;;;;;;;;5056907;28;20235;-52
2023/05/14 04:37:42;;;;;;;9.07;7.47;;;;;;;;;;5054603;28;20342;-52
2023/05/14 04:40:10;;;;;;;8.13;7.13;;;;;;;;;;5049468;28;20227;-52
2023/05/14 04:42:37;;;;;;;7.70;7.00;;;;;;;;;;5049965;28;20231;-51
2023/05/14 04:45:05;;;;;;;10.55;7.00;;;;;;;;;;5063314;28;20297;-51
2023/05/14 04:47:32;;;;;;;7.95;7.25;;;;;;;;;;5064464;28;20237;-51
2023/05/14 04:49:59;;;;;;;7.88;7.18;;;;;;;;;;5056509;28;20738;-51
2023/05/14 04:52:26;;;;;;;7.30;6.60;;;;;;;;;;5052121;28;20239;-51
2023/05/14 04:54:52;;;;;;;9.90;7.30;;;;;;;;;;5061227;28;20313;-52
2023/05/14 04:57:19;;;;;;;9.30;7.40;;;;;;;;;;5063624;28;20231;-52
2023/05/14 04:59:46;;;;;;;8.18;7.10;;;;;;;;;;5049057;28;20271;-52
2023/05/14 05:02:13;;;;;;;10.63;7.53;;;;;;;;;;5056016;28;20318;-51
2023/05/14 05:04:41;;;;;;;10.73;5.47;;;;;;;;;;5052498;28;20236;-51
2023/05/14 05:07:07;;;;;;;10.63;5.03;;;;;;;;;;5054615;28;20826;-52
2023/05/14 05:09:34;;;;;;;6.60;5.70;;;;;;;;;;5051371;28;20327;-52
2023/05/14 05:12:01;;;;;;;7.68;5.70;;;;;;;;;;5053678;28;20247;-51
2023/05/14 05:14:27;;;;;;;6.00;5.50;;;;;;;;;;5052802;28;20235;-51
2023/05/14 05:16:54;;;;;;;6.13;4.60;;;;;;;;;;5050246;28;20235;-52
2023/05/14 05:19:21;;;;;;;7.72;5.68;;;;;;;;;;5052292;28;20241;-52
2023/05/14 05:21:50;;;;;;;4.60;4.00;;;;;;;;;;5055619;28;20928;-52
2023/05/14 05:24:16;;;;;;;5.57;5.03;;;;;;;;;;5054319;28;20231;-51
2023/05/14 05:26:43;;;;;;;6.10;4.93;;;;;;;;;;5058191;28;20801;-54
2023/05/14 05:29:09;;;;;;;5.78;5.28;;;;;;;;;;5057582;28;20231;-51
2023/05/14 05:31:36;;;;;;;5.68;5.18;;;;;;;;;;5062813;28;20257;-51
2023/05/14 05:34:03;;;;;;;12.68;5.35;;;;;;;;;;5068104;28;20231;-51
2023/05/14 05:36:29;;;;;;;5.28;4.55;;;;;;;;;;5064464;28;20246;-51
2023/05/14 05:38:57;;;;;;;5.43;4.93;;;;;;;;;;5057222;28;20633;-52
2023/05/14 05:41:25;;;;;;;7.35;5.93;;;;;;;;;;5061278;28;20961;-52
2023/05/14 05:43:52;;;;;;;6.35;5.65;;;;;;;;;;5066828;28;20258;-51
2023/05/14 05:46:19;;;;;;;5.47;4.28;;;;;;;;;;5061329;28;20219;-52
2023/05/14 05:48:46;;;;;;;5.53;5.03;;;;;;;;;;5067089;28;20799;-52
2023/05/14 05:51:12;;;;;;;7.28;5.72;;;;;;;;;;5062767;28;20708;-52
2023/05/14 05:53:39;;;;;;;7.72;4.97;;;;;;;;;;5082023;28;20235;-52
2023/05/14 05:56:07;;;;;;;5.75;4.63;;;;;;;;;;5065606;28;20303;-52
2023/05/14 05:58:33;;;;;;;5.20;4.70;;;;;;;;;;5064965;28;20298;-52
2023/05/14 06:01:00;;;;;;;5.75;4.57;;;;;;;;;;5071584;28;20290;-52
2023/05/14 06:03:27;;;;;;;6.05;5.28;;;;;;;;;;5046510;28;20259;-51
2023/05/14 06:05:53;;;;;;;6.32;5.43;;;;;;;;;;5061685;28;20223;-52
2023/05/14 06:08:20;;;;;;;6.82;5.15;;;;;;;;;;5062998;28;20238;-51
2023/05/14 06:10:46;;;;;;;9.80;5.72;;;;;;;;;;5063176;28;20285;-52
2023/05/14 06:13:15;;;;;;;6.88;5.13;;;;;;;;;;5060147;28;20231;-53
2023/05/14 06:15:41;;;;;;;5.82;4.60;;;;;;;;;;5057460;28;20315;-53
2023/05/14 06:18:08;;;;;;;8.45;5.22;;;;;;;;;;5057332;28;20226;-52
2023/05/14 06:20:35;;;;;;;4.50;4.15;;;;;;;;;;5060654;28;20227;-57
2023/05/14 06:23:01;;;;;;;5.50;4.38;;;;;;;;;;5060231;27;20710;-53
2023/05/14 06:25:28;;;;;;;6.10;4.60;;;;;;;;;;5068987;28;20235;-51
2023/05/14 06:27:55;;;;;;;6.30;5.38;;;;;;;;;;5052334;28;20265;-53
2023/05/14 06:30:22;;;;;;;5.72;4.78;;;;;;;;;;5057982;28;20223;-51
2023/05/14 06:32:49;;;;;;;5.03;4.38;;;;;;;;;;5060738;28;20235;-51
2023/05/14 06:35:16;;;;;;;6.63;4.88;;;;;;;;;;5059059;28;20258;-51
2023/05/14 06:37:42;;;;;;;7.28;4.57;;;;;;;;;;5054403;28;20238;-51
2023/05/14 06:40:09;;;;;;;5.78;5.25;;;;;;;;;;5055893;28;20228;-52
2023/05/14 06:42:36;;;;;;;9.27;5.30;;;;;;;;;;5058243;28;20324;-51
2023/05/14 06:45:02;;;;;;;5.60;4.63;;;;;;;;;;5048771;28;20318;-52
2023/05/14 06:47:30;;;;;;;6.03;4.75;;;;;;;;;;5054198;28;20259;-52
2023/05/14 06:49:57;;;;;;;5.10;4.60;;;;;;;;;;5054408;28;20310;-52
2023/05/14 06:52:24;;;;;;;6.10;4.85;;;;;;;;;;5052685;28;20234;-52
2023/05/14 06:54:50;;;;;;;4.50;4.10;;;;;;;;;;5059874;28;20304;-51
2023/05/14 06:57:17;;;;;;;5.57;4.18;;;;;;;;;;5058862;28;20318;-51
2023/05/14 06:59:43;;;;;;;4.82;4.32;;;;;;;;;;5051686;28;20336;-51
2023/05/14 07:02:10;;;;;;;7.18;3.97;;;;;;;;;;5052492;28;20227;-51
2023/05/14 07:04:38;;;;;;;4.32;3.92;;;;;;;;;;5043543;28;20235;-50
2023/05/14 07:07:05;;;;;;;5.60;4.18;;;;;;;;;;5054199;28;20598;-53
2023/05/14 07:09:31;;;;;;;5.20;4.70;;;;;;;;;;5050929;28;20309;-53
2023/05/14 07:11:58;;;;;;;4.40;4.05;;;;;;;;;;5051242;28;20277;-53
2023/05/14 07:14:24;;;;;;;5.07;4.30;;;;;;;;;;5055952;28;20227;-51
2023/05/14 07:16:51;;;;;;;4.72;3.63;;;;;;;;;;5058639;28;20285;-53
2023/05/14 07:19:17;;;;;;;4.65;4.25;;;;;;;;;;5049112;28;20226;-51
2023/05/14 07:21:45;;;;;;;4.72;4.00;;;;;;;;;;5045049;28;20235;-50
2023/05/14 07:24:11;;;;;;;7.57;4.53;;;;;;;;;;5043252;28;20231;-50
2023/05/14 07:26:38;;;;;;;4.70;4.30;;;;;;;;;;5045023;28;20254;-51
2023/05/14 07:29:04;;;;;;;4.32;3.92;;;;;;;;;;5053060;28;20403;-50
2023/05/14 07:31:30;;;;;;;4.80;3.63;;;;;;;;;;5051427;28;20247;-50
2023/05/14 07:33:57;;;;;;;5.38;4.07;;;;;;;;;;5059469;28;20235;-51
2023/05/14 07:36:23;;;;;;;4.45;4.10;;;;;;;;;;5062105;28;20255;-51
2023/05/14 07:38:51;;;;;;;5.43;3.75;;;;;;;;;;5051351;28;20232;-50
2023/05/14 07:41:17;;;;;;;6.63;4.38;;;;;;;;;;5062910;28;20236;-50
2023/05/14 07:43:44;;;;;;;4.53;4.13;;;;;;;;;;5059416;28;20645;-51
2023/05/14 07:46:10;;;;;;;6.53;4.35;;;;;;;;;;5053916;28;20315;-52
2023/05/14 07:48:36;;;;;;;4.32;3.40;;;;;;;;;;5056073;28;20227;-52
2023/05/14 07:51:03;;;;;;;5.13;3.90;;;;;;;;;;5053303;28;20815;-52
2023/05/14 07:53:29;;;;;;;6.35;4.22;;;;;;;;;;5046928;28;20234;-51
2023/05/14 07:55:58;;;;;;;4.10;3.65;;;;;;;;;;5055222;28;20236;-51
2023/05/14 07:58:26;;;;;;;7.55;3.88;;;;;;;;;;5067140;28;20235;-51
2023/05/14 08:00:53;;;;;;;5.43;4.07;;;;;;;;;;5060077;28;20223;-52
2023/05/14 08:03:19;;;;;;;4.35;3.75;;;;;;;;;;5063062;28;20237;-52
2023/05/14 08:05:45;;;;;;;4.05;3.55;;;;;;;;;;5056773;28;20238;-51
2023/05/14 08:08:12;;;;;;;4.43;3.63;;;;;;;;;;5056970;28;20940;-54
2023/05/14 08:10:38;;;;;;;4.00;3.63;;;;;;;;;;5050023;28;20236;-53
2023/05/14 08:13:06;;;;;;;4.32;3.60;;;;;;;;;;5053634;28;20255;-51
2023/05/14 08:15:32;;;;;;;4.07;3.78;;;;;;;;;;5059634;28;20323;-51
2023/05/14 08:18:02;;;;;;;4.47;3.80;;;;;;;;;;5069557;28;20312;-51
2023/05/14 08:20:28;;;;;;;3.80;3.45;;;;;;;;;;5070989;28;20239;-53
2023/05/14 08:22:54;;;;;;;3.88;3.42;;;;;;;;;;5061195;28;20231;-52
2023/05/14 08:25:21;;;;;;;5.40;3.88;;;;;;;;;;5060606;28;20231;-52
2023/05/14 08:27:47;;;;;;;4.95;4.15;;;;;;;;;;5047190;28;20236;-52
2023/05/14 08:30:15;;;;;;;3.97;3.67;;;;;;;;;;5061876;28;20238;-52
2023/05/14 08:32:41;;;;;;;5.25;3.50;;;;;;;;;;5059197;28;20232;-52
2023/05/14 08:35:08;;;;;;;5.03;4.05;;;;;;;;;;5049079;28;20740;-53
2023/05/14 08:37:35;;;;;;;3.80;3.50;;;;;;;;;;5058742;28;20237;-49
2023/05/14 08:40:01;;;;;;;5.25;3.60;;;;;;;;;;5052517;28;20227;-51
2023/05/14 08:42:28;;;;;;;4.47;4.18;;;;;;;;;;5049971;28;20265;-53
2023/05/14 08:44:57;;;;;;;3.88;3.47;;;;;;;;;;5045312;28;20319;-52
2023/05/14 08:47:25;;;;;;;3.00;2.80;;;;;;;;;;5055580;27;20273;-51
2023/05/14 08:49:53;;;;;;;4.07;2.85;;;;;;;;;;5053996;28;20722;-51
2023/05/14 08:52:20;;;;;;;3.22;2.92;;;;;;;;;;5055207;28;20318;-53
2023/05/14 08:54:47;;;;;;;3.20;2.90;;;;;;;;;;5052644;28;20288;-50
2023/05/14 08:57:14;;;;;;;3.33;3.03;;;;;;;;;;5052693;28;20224;-51
2023/05/14 08:59:40;;;;;;;3.25;3.05;;;;;;;;;;5047566;28;20220;-52
2023/05/14 09:02:08;;;;;;;7.30;3.75;;;;;;;;;;5040101;28;20236;-51
2023/05/14 09:04:36;;;;;;;5.30;3.47;;;;;;;;;;5056281;28;20235;-51
2023/05/14 09:07:02;;;;;;;3.58;3.22;;;;;;;;;;5058866;28;20318;-52
2023/05/14 09:09:29;;;;;;;3.92;3.10;;;;;;;;;;5058749;28;20307;-52
2023/05/14 09:11:55;;;;;;;3.88;3.33;;;;;;;;;;5053561;28;20239;-50
2023/05/14 09:14:22;;;;;;;3.25;2.95;;;;;;;;;;5061008;28;20223;-51
2023/05/14 09:16:49;;;;;;;4.22;2.88;;;;;;;;;;5040412;28;20595;-51
2023/05/14 09:19:17;;;;;;;5.00;3.40;;;;;;;;;;5047167;28;20318;-51
2023/05/14 09:21:46;;;;;;;3.30;3.00;;;;;;;;;;5055587;28;20231;-53
2023/05/14 09:24:18;;;;;;;3.20;2.85;;;;;;;;;;5061297;28;20258;-52
2023/05/14 09:26:45;;;;;;;3.40;3.10;;;;;;;;;;5057136;28;20223;-51
2023/05/14 09:29:11;;;;;;;5.30;3.20;;;;;;;;;;5059337;28;20235;-51
2023/05/14 09:31:37;;;;;;;3.95;2.78;;;;;;;;;;5058224;28;20333;-51
2023/05/14 09:34:04;;;;;;;4.97;3.30;;;;;;;;;;5042336;28;20556;-51
2023/05/14 09:36:30;;;;;;;4.35;2.63;;;;;;;;;;5046441;28;20322;-51
2023/05/14 09:38:58;;;;;;;2.95;2.70;;;;;;;;;;5052087;28;20709;-51
2023/05/14 09:41:24;;;;;;;3.70;3.40;;;;;;;;;;5050930;28;20310;-51
2023/05/14 09:43:51;;;;;;;3.33;3.03;;;;;;;;;;5055009;28;20256;-52
2023/05/14 09:46:17;;;;;;;3.20;2.90;;;;;;;;;;5062070;28;20234;-53
2023/05/14 09:48:45;;;;;;;3.42;3.13;;;;;;;;;;5058388;28;20228;-52
2023/05/14 09:51:11;;;;;;;3.47;3.17;;;;;;;;;;5052604;28;20334;-52
2023/05/14 09:53:40;;;;;;;4.43;3.25;;;;;;;;;;5045709;28;20335;-51
2023/05/14 09:56:07;;;;;;;4.00;3.63;;;;;;;;;;5053273;28;20310;-52
2023/05/14 09:58:34;;;;;;;3.67;3.38;;;;;;;;;;5056947;28;20227;-53
2023/05/14 10:01:01;;;;;;;4.43;3.13;;;;;;;;;;5050196;28;20401;-52
2023/05/14 10:03:29;;;;;;;3.85;3.55;;;;;;;;;;5034065;28;20298;-52
2023/05/14 10:05:56;;;;;;;3.40;3.10;;;;;;;;;;5047247;28;20237;-50
2023/05/14 10:08:25;;;;;;;4.38;3.88;;;;;;;;;;5047817;28;20247;-51
2023/05/14 10:10:53;;;;;;;5.55;3.63;;;;;;;;;;5052664;28;20242;-52
2023/05/14 10:13:23;;;;;;;3.92;3.53;;;;;;;;;;5046129;28;20238;-51
2023/05/14 10:15:54;;;;;;;5.15;3.53;;;;;;;;;;5050022;28;20244;-52
2023/05/14 10:18:22;;;;;;;4.35;3.40;;;;;;;;;;5056374;28;20223;-51
2023/05/14 10:20:57;;;;;;;4.10;3.70;;;;;;;;;;5063564;28;20251;-51
2023/05/14 10:23:23;;;;;;;5.75;3.55;;;;;;;;;;5046957;28;20321;-51
2023/05/14 10:25:50;;;;;;;3.95;3.53;;;;;;;;;;5050528;28;20328;-51
2023/05/14 10:28:16;;;;;;;3.17;2.88;;;;;;;;;;5051630;28;20238;-52
2023/05/14 10:30:45;;;;;;;6.22;3.58;;;;;;;;;;5055338;28;20246;-55
2023/05/14 10:33:13;;;;;;;3.47;3.17;;;;;;;;;;5033194;28;20239;-50
2023/05/14 10:35:54;;;;;;;6.72;3.45;;;;;;;;;;5050930;28;20232;-52
2023/05/14 10:38:22;;;;;;;3.40;3.10;;;;;;;;;;5052579;28;20599;-51
2023/05/14 10:40:49;;;;;;;5.90;3.78;;;;;;;;;;5048409;28;20241;-51
2023/05/14 10:43:17;;;;;;;7.80;4.18;;;;;;;;;;5053062;28;20266;-52
2023/05/14 10:45:45;;;;;;;7.25;4.10;;;;;;;;;;5056978;28;20325;-51
2023/05/14 10:48:12;;;;;;;3.60;3.30;;;;;;;;;;5060273;28;20227;-52
2023/05/14 10:50:38;;;;;;;5.15;3.72;;;;;;;;;;5057576;28;20607;-52
2023/05/14 10:53:05;;;;;;;4.00;3.60;;;;;;;;;;5059290;28;20749;-50
2023/05/14 10:55:31;;;;;;;4.55;3.30;;;;;;;;;;5051763;28;20237;-51
2023/05/14 10:58:00;;;;;;;3.28;2.97;;;;;;;;;;5049055;28;20241;-50
2023/05/14 11:00:27;;;;;;;7.03;3.38;;;;;;;;;;5038457;28;20259;-52
2023/05/14 11:02:56;;;;;;;5.97;4.18;;;;;;;;;;5052888;28;20228;-51
2023/05/14 11:05:26;;;;;;;3.97;3.58;;;;;;;;;;5052675;28;20258;-52
2023/05/14 11:07:55;;;;;;;4.70;3.15;;;;;;;;;;5058174;28;20235;-51
2023/05/14 11:10:22;;;;;;;5.13;4.18;;;;;;;;;;5061199;28;20241;-51
2023/05/14 11:12:49;;;;;;;3.55;3.25;;;;;;;;;;5049461;27;20324;-53
2023/05/14 11:15:16;;;;;;;4.63;3.67;;;;;;;;;;5069494;28;20302;-52
2023/05/14 11:17:43;;;;;;;4.35;2.88;;;;;;;;;;5053045;28;20323;-52
2023/05/14 11:20:12;;;;;;;4.05;3.15;;;;;;;;;;5055518;28;20651;-52
2023/05/14 11:22:39;;;;;;;4.07;3.35;;;;;;;;;;5050289;28;20319;-52
2023/05/14 11:25:07;;;;;;;3.70;3.40;;;;;;;;;;5060944;28;20751;-50
2023/05/14 11:27:34;;;;;;;3.97;3.65;;;;;;;;;;5050095;28;20624;-51
2023/05/14 11:30:00;;;;;;;6.18;3.33;;;;;;;;;;5061646;28;20288;-50
2023/05/14 11:32:27;;;;;;;4.07;3.65;;;;;;;;;;5056225;28;20240;-50
2023/05/14 11:34:53;;;;;;;7.20;3.97;;;;;;;;;;5063190;28;20227;-52
2023/05/14 11:37:21;;;;;;;7.00;3.67;;;;;;;;;;5058512;28;20684;-52
2023/05/14 11:39:48;;;;;;;3.88;3.58;;;;;;;;;;5055482;28;20252;-52
2023/05/14 11:42:17;;;;;;;6.50;3.58;;;;;;;;;;5051940;28;20725;-51
2023/05/14 11:44:44;;;;;;;6.65;3.85;;;;;;;;;;5050784;28;20266;-51
2023/05/14 11:47:11;;;;;;;4.07;3.25;;;;;;;;;;5050276;28;20231;-51
2023/05/14 11:49:37;;;;;;;4.70;3.25;;;;;;;;;;5048410;28;20236;-50
2023/05/14 11:52:04;;;;;;;6.25;3.28;;;;;;;;;;5053177;28;20344;-52
2023/05/14 11:54:32;;;;;;;6.75;3.88;;;;;;;;;;5061597;28;20314;-52
2023/05/14 11:56:59;;;;;;;4.45;4.05;;;;;;;;;;5059215;28;20709;-52
2023/05/14 11:59:27;;;;;;;5.15;4.00;;;;;;;;;;5061638;28;20235;-51
2023/05/14 12:01:54;;;;;;;4.57;3.63;;;;;;;;;;5054184;28;20231;-53
2023/05/14 12:04:21;;;;;;;3.83;3.40;;;;;;;;;;5063470;28;20249;-52
2023/05/14 12:06:47;;;;;;;4.43;3.58;;;;;;;;;;5060257;28;20235;-52
2023/05/14 12:09:16;;;;;;;4.60;3.80;;;;;;;;;;5043343;28;20229;-51
2023/05/14 12:11:45;;;;;;;5.25;3.85;;;;;;;;;;5050092;28;20314;-51
2023/05/14 12:14:12;;;;;;;3.85;3.45;;;;;;;;;;5055773;28;20297;-52
2023/05/14 12:16:39;;;;;;;4.63;4.22;;;;;;;;;;5045655;28;20239;-51
2023/05/14 12:19:08;;;;;;;5.88;4.18;;;;;;;;;;5063103;28;20314;-51
2023/05/14 12:21:35;;;;;;;4.22;3.80;;;;;;;;;;5044622;28;20603;-51
2023/05/14 12:24:02;;;;;;;6.35;3.78;;;;;;;;;;5053392;28;20299;-50
2023/05/14 12:26:32;;;;;;;4.72;4.22;;;;;;;;;;5064794;28;20232;-56
2023/05/14 12:29:01;;;;;;;5.25;4.53;;;;;;;;;;5060627;28;20228;-52
2023/05/14 12:31:28;;;;;;;5.93;4.00;;;;;;;;;;5060118;28;20238;-51
2023/05/14 12:33:54;;;;;;;3.85;3.50;;;;;;;;;;5066321;28;20280;-50
2023/05/14 12:36:20;;;;;;;4.07;3.78;;;;;;;;;;5064480;28;20247;-50
2023/05/14 12:38:47;;;;;;;4.32;3.83;;;;;;;;;;5057791;28;20288;-51
2023/05/14 12:41:13;;;;;;;3.78;3.47;;;;;;;;;;5052901;28;20370;-51
2023/05/14 12:43:40;;;;;;;3.67;3.47;;;;;;;;;;5056377;28;20338;-51
2023/05/14 12:46:08;;;;;;;5.30;3.85;;;;;;;;;;5053426;28;20254;-50
2023/05/14 12:48:35;;;;;;;3.78;3.58;;;;;;;;;;5059061;28;20233;-52
2023/05/14 12:51:01;;;;;;;4.15;3.65;;;;;;;;;;5057273;28;20227;-52
2023/05/14 12:53:27;;;;;;;4.75;3.90;;;;;;;;;;5059342;28;20227;-54
2023/05/14 12:55:54;;;;;;;3.47;3.17;;;;;;;;;;5047184;28;20237;-53
2023/05/14 12:58:20;;;;;;;3.85;3.55;;;;;;;;;;5054504;28;20967;-52
2023/05/14 13:00:47;;;;;;;4.53;3.90;;;;;;;;;;5058672;28;20232;-51
2023/05/14 13:03:15;;;;;;;6.75;3.83;;;;;;;;;;5048097;28;20231;-51
2023/05/14 13:05:41;;;;;;;4.10;3.78;;;;;;;;;;5056099;28;20235;-51
2023/05/14 13:08:09;;;;;;;6.07;3.25;;;;;;;;;;5052264;28;20250;-51
2023/05/14 13:10:35;;;;;;;3.60;3.30;;;;;;;;;;5051442;28;20290;-52
2023/05/14 13:13:02;;;;;;;4.25;3.85;;;;;;;;;;5057205;28;20235;-52
2023/05/14 13:15:30;;;;;;;5.43;3.65;;;;;;;;;;5056085;28;20239;-51
2023/05/14 13:17:56;;;;;;;6.97;3.83;;;;;;;;;;5065227;28;20251;-50
2023/05/14 13:20:26;;;;;;;6.68;3.58;;;;;;;;;;5056817;28;20241;-54
2023/05/14 13:22:52;;;;;;;4.40;4.00;;;;;;;;;;5062220;28;20236;-51
2023/05/14 13:25:18;;;;;;;4.35;3.38;;;;;;;;;;5063234;28;20365;-52
2023/05/14 13:27:45;;;;;;;5.35;3.20;;;;;;;;;;5052130;28;20227;-52
2023/05/14 13:30:11;;;;;;;3.40;3.13;;;;;;;;;;5062977;28;20326;-51
2023/05/14 13:32:38;;;;;;;4.55;3.05;;;;;;;;;;5061606;28;20310;-57
2023/05/14 13:35:06;;;;;;;3.85;3.55;;;;;;;;;;5048294;28;20236;-53
2023/05/14 13:37:34;;;;;;;3.33;3.03;;;;;;;;;;5048574;28;20261;-50
2023/05/14 13:40:00;;;;;;;3.50;3.20;;;;;;;;;;5051619;28;20246;-52
2023/05/14 13:42:27;;;;;;;4.00;3.40;;;;;;;;;;5056121;28;20267;-53
2023/05/14 13:44:55;;;;;;;8.07;3.78;;;;;;;;;;5056195;28;20238;-52
2023/05/14 13:47:21;;;;;;;4.18;3.40;;;;;;;;;;5059744;28;20276;-52
2023/05/14 13:49:47;;;;;;;3.67;3.38;;;;;;;;;;5042880;28;20314;-51
2023/05/14 13:52:14;;;;;;;4.28;3.80;;;;;;;;;;5055239;28;20251;-52
2023/05/14 13:54:42;;;;;;;5.78;4.82;;;;;;;;;;5043290;28;20717;-52
2023/05/14 13:57:08;;;;;;;4.75;4.18;;;;;;;;;;5053255;28;20641;-52
2023/05/14 13:59:34;;;;;;;4.22;3.58;;;;;;;;;;5052183;28;20239;-52
2023/05/14 14:02:01;;;;;;;7.55;4.35;;;;;;;;;;5057479;28;20243;-50
2023/05/14 14:04:27;;;;;;;4.47;3.63;;;;;;;;;;5061518;28;20241;-51
2023/05/14 14:06:54;;;;;;;3.75;3.45;;;;;;;;;;5052814;28;20235;-51
2023/05/14 14:09:20;;;;;;;6.00;3.47;;;;;;;;;;5058536;28;20255;-51
2023/05/14 14:11:48;;;;;;;8.13;3.75;;;;;;;;;;5054138;28;20239;-51
2023/05/14 14:14:14;;;;;;;5.03;4.18;;;;;;;;;;5057598;28;20240;-52
2023/05/14 14:16:41;;;;;;;4.18;3.78;;;;;;;;;;5057022;28;20251;-53
2023/05/14 14:19:08;;;;;;;4.15;3.80;;;;;;;;;;5055351;28;20835;-52
2023/05/14 14:21:35;;;;;;;4.20;3.60;;;;;;;;;;5057212;28;20310;-51
2023/05/14 14:24:01;;;;;;;9.75;9.05;;;;;;;;;;5047843;28;20240;-51
2023/05/14 14:26:28;;;;;;;9.75;8.95;;;;;;;;;;5054607;28;20330;-51
2023/05/14 14:28:55;;;;;;;5.47;4.97;;;;;;;;;;5059138;28;20258;-52
2023/05/14 14:31:22;;;;;;;5.63;3.70;;;;;;;;;;5047445;28;20235;-52
2023/05/14 14:33:48;;;;;;;6.05;3.65;;;;;;;;;;5051773;28;20330;-51
2023/05/14 14:36:15;;;;;;;6.35;3.28;;;;;;;;;;5062432;28;20606;-51